sensor_id;sensor_type;location;lat;lon;timestamp;pressure;altitude;pressure_sealevel;temperature;humidity
39309;BME280;26019;47.510;19.122;2023-01-27T00:03:11;100273.25;;;0.79;100.00
39309;BME280;26019;47.510;19.122;2023-01-27T00:13:24;100272.34;;;0.77;100.00
39309;BME280;26019;47.510;19.122;2023-01-27T00:23:32;100257.84;;;0.74;100.00
39309;BME280;26019;47.510;19.122;2023-01-27T00:33:52;100264.38;;;0.67;100.00
39309;BME280;26019;47.510;19.122;2023-01-27T00:43:58;100263.41;;;0.62;100.00
39309;BME280;26019;47.510;19.122;2023-01-27T00:54:03;100257.19;;;0.54;100.00
39309;BME280;26019;47.510;19.122;2023-01-27T01:04:05;100260.53;;;0.53;100.00
39309;BME280;26019;47.510;19.122;2023-01-27T01:14:13;100253.00;;;0.56;100.00
39309;BME280;26019;47.510;19.122;2023-01-27T01:24:14;100251.09;;;0.50;100.00
39309;BME280;26019;47.510;19.122;2023-01-27T01:34:25;100247.38;;;0.40;100.00
39309;BME280;26019;47.510;19.122;2023-01-27T01:44:29;100247.09;;;0.31;100.00
39309;BME280;26019;47.510;19.122;2023-01-27T01:54:45;100244.63;;;0.34;100.00
39309;BME280;26019;47.510;19.122;2023-01-27T02:05:02;100242.00;;;0.31;100.00
39309;BME280;26019;47.510;19.122;2023-01-27T02:15:05;100228.22;;;0.24;100.00
39309;BME280;26019;47.510;19.122;2023-01-27T02:25:25;100226.31;;;0.19;100.00
39309;BME280;26019;47.510;19.122;2023-01-27T02:35:38;100200.75;;;0.14;100.00
39309;BME280;26019;47.510;19.122;2023-01-27T02:45:49;100197.63;;;-0.03;100.00
39309;BME280;26019;47.510;19.122;2023-01-27T02:55:50;100186.75;;;-0.23;100.00
39309;BME280;26019;47.510;19.122;2023-01-27T03:06:00;100178.91;;;-0.29;100.00
39309;BME280;26019;47.510;19.122;2023-01-27T03:16:05;100156.59;;;-0.38;100.00
39309;BME280;26019;47.510;19.122;2023-01-27T03:26:31;100150.22;;;-0.51;100.00
39309;BME280;26019;47.510;19.122;2023-01-27T03:36:33;100154.06;;;-0.61;100.00
39309;BME280;26019;47.510;19.122;2023-01-27T03:46:53;100143.63;;;-0.70;100.00
39309;BME280;26019;47.510;19.122;2023-01-27T03:56:55;100131.50;;;-0.78;100.00
39309;BME280;26019;47.510;19.122;2023-01-27T04:06:57;100123.31;;;-0.70;100.00
39309;BME280;26019;47.510;19.122;2023-01-27T04:17:03;100124.03;;;-0.73;100.00
39309;BME280;26019;47.510;19.122;2023-01-27T04:27:09;100134.88;;;-0.77;100.00
39309;BME280;26019;47.510;19.122;2023-01-27T04:37:11;100127.25;;;-1.01;100.00
39309;BME280;26019;47.510;19.122;2023-01-27T04:47:13;100133.28;;;-1.21;100.00
39309;BME280;26019;47.510;19.122;2023-01-27T04:57:16;100126.25;;;-1.49;100.00
39309;BME280;26019;47.510;19.122;2023-01-27T05:07:19;100130.09;;;-1.80;100.00
39309;BME280;26019;47.510;19.122;2023-01-27T05:17:22;100133.84;;;-1.70;100.00
39309;BME280;26019;47.510;19.122;2023-01-27T05:27:31;100145.16;;;-1.83;100.00
39309;BME280;26019;47.510;19.122;2023-01-27T05:37:39;100142.34;;;-1.89;100.00
39309;BME280;26019;47.510;19.122;2023-01-27T05:47:50;100129.03;;;-1.85;100.00
39309;BME280;26019;47.510;19.122;2023-01-27T05:57:53;100134.72;;;-1.91;100.00
39309;BME280;26019;47.510;19.122;2023-01-27T06:07:57;100140.41;;;-1.75;100.00
39309;BME280;26019;47.510;19.122;2023-01-27T06:18:04;100124.00;;;-1.41;100.00
39309;BME280;26019;47.510;19.122;2023-01-27T06:39:19;100143.03;;;-0.86;100.00
39309;BME280;26019;47.510;19.122;2023-01-27T06:49:21;100148.03;;;-0.65;100.00
39309;BME280;26019;47.510;19.122;2023-01-27T07:09:23;100151.72;;;-0.08;100.00
39309;BME280;26019;47.510;19.122;2023-01-27T07:29:15;100159.31;;;0.42;98.65
39309;BME280;26019;47.510;19.122;2023-01-27T07:39:20;100153.63;;;0.50;95.78
39309;BME280;26019;47.510;19.122;2023-01-27T07:49:22;100142.06;;;0.59;95.55
39309;BME280;26019;47.510;19.122;2023-01-27T08:20:08;100167.53;;;0.88;90.25
